Time;durP1;ratioP1;P1;durP2;ratioP2;P2;SDS_P1;SDS_P2;PMS_P1;PMS_P2;Temp;Humidity;BMP_temperature;BMP_pressure;BME280_temperature;BME280_humidity;BME280_pressure;Samples;Min_cycle;Max_cycle;Signal;HPM_P1;HPM_P2
2022/12/17 13:06:58;;;;;;;49.55;25.58;;;2.70;99.90;;;;;;5054808;28;20202;-78
2022/12/17 13:09:49;;;;;;;49.28;23.08;;;2.80;99.90;;;;;;5063777;28;20644;-80
2022/12/17 13:12:53;;;;;;;43.20;22.17;;;2.70;99.90;;;;;;5062335;28;20225;-80
2022/12/17 13:15:41;;;;;;;43.78;23.88;;;2.80;99.90;;;;;;5066025;28;20170;-79
2022/12/17 13:18:36;;;;;;;37.95;21.60;;;2.90;99.90;;;;;;5069019;28;20193;-84
2022/12/17 13:21:24;;;;;;;40.97;22.67;;;2.90;99.90;;;;;;5068353;28;20239;-79
2022/12/17 13:23:50;;;;;;;39.75;19.73;;;2.90;99.90;;;;;;5062931;28;20201;-79
2022/12/17 13:26:43;;;;;;;40.28;22.17;;;2.90;99.90;;;;;;5063987;28;20178;-78
2022/12/17 13:29:39;;;;;;;42.30;21.65;;;2.70;99.90;;;;;;5065678;28;20159;-81
2022/12/17 13:32:24;;;;;;;35.20;19.20;;;2.50;99.90;;;;;;5066590;28;20695;-80
2022/12/17 13:35:18;;;;;;;32.65;19.75;;;2.50;99.90;;;;;;5062892;28;20171;-79
2022/12/17 13:38:04;;;;;;;45.60;20.80;;;2.90;99.90;;;;;;5065892;28;20183;-80
2022/12/17 13:40:36;;;;;;;42.38;19.27;;;2.80;99.90;;;;;;5064333;28;20262;-79
2022/12/17 13:43:03;;;;;;;38.88;20.50;;;2.80;99.90;;;;;;5058327;28;20206;-78
2022/12/17 13:45:46;;;;;;;46.90;19.50;;;2.80;99.90;;;;;;5050660;28;20199;-80
2022/12/17 13:48:23;;;;;;;36.17;19.98;;;2.70;99.90;;;;;;5065874;28;20171;-77
2022/12/17 13:50:58;;;;;;;39.30;20.73;;;2.70;99.90;;;;;;5061569;28;20181;-78
2022/12/17 13:53:25;;;;;;;43.25;21.70;;;2.70;99.90;;;;;;5059664;28;20209;-79
2022/12/17 13:55:53;;;;;;;39.65;19.02;;;2.80;99.90;;;;;;5056640;28;20174;-80
2022/12/17 13:58:23;;;;;;;38.55;19.65;;;2.90;99.90;;;;;;5056902;28;20171;-78
2022/12/17 14:00:48;;;;;;;36.10;20.20;;;2.90;99.90;;;;;;5057256;28;20164;-79
2022/12/17 14:03:21;;;;;;;41.67;20.95;;;2.90;99.90;;;;;;5054429;28;20260;-79
2022/12/17 14:05:47;;;;;;;36.88;20.77;;;3.00;99.90;;;;;;5056178;28;20171;-79
2022/12/17 14:08:17;;;;;;;43.42;21.33;;;3.00;99.90;;;;;;5055784;28;20167;-79
2022/12/17 14:10:51;;;;;;;40.45;22.10;;;2.90;99.90;;;;;;5056292;28;20619;-80
2022/12/17 14:13:17;;;;;;;40.55;21.85;;;2.70;99.90;;;;;;5055721;28;20203;-78
2022/12/17 14:15:50;;;;;;;41.10;22.63;;;2.70;99.90;;;;;;5055914;28;20163;-78
2022/12/17 14:18:18;;;;;;;37.15;20.83;;;2.80;99.90;;;;;;5055920;28;20175;-79
2022/12/17 14:20:44;;;;;;;45.42;22.05;;;2.60;99.90;;;;;;5055840;28;20178;-78
2022/12/17 14:23:27;;;;;;;53.60;21.30;;;2.70;99.90;;;;;;5056435;28;20203;-79
2022/12/17 14:25:53;;;;;;;42.50;22.52;;;2.80;99.90;;;;;;5068935;28;20178;-78
2022/12/17 14:28:20;;;;;;;46.40;22.80;;;2.90;99.90;;;;;;5067850;28;20168;-78
2022/12/17 14:30:46;;;;;;;40.60;22.15;;;2.90;99.90;;;;;;5068243;28;20535;-79
2022/12/17 14:33:30;;;;;;;46.20;23.05;;;2.70;99.90;;;;;;5069473;28;20238;-78
2022/12/17 14:35:58;;;;;;;39.70;21.77;;;2.80;99.90;;;;;;5061806;28;20171;-79
2022/12/17 14:38:25;;;;;;;47.08;23.48;;;3.00;99.90;;;;;;5055414;28;20248;-80
2022/12/17 14:40:51;;;;;;;43.97;22.17;;;2.90;99.90;;;;;;5055692;28;20689;-79
2022/12/17 14:43:25;;;;;;;47.58;22.85;;;2.90;99.90;;;;;;5055179;28;20187;-78
2022/12/17 14:49:02;;;;;;;56.38;23.90;;;2.80;99.90;;;;;;5055406;28;20704;-77
2022/12/17 14:51:31;;;;;;;42.72;22.17;;;2.80;99.90;;;;;;5054685;28;20231;-78
2022/12/17 14:54:15;;;;;;;44.35;22.08;;;2.60;99.90;;;;;;5054752;28;20180;-78
2022/12/17 14:56:41;;;;;;;44.13;21.92;;;2.50;99.90;;;;;;5055161;28;20530;-78
2022/12/17 14:59:36;;;;;;;38.75;21.05;;;2.50;99.90;;;;;;5054821;28;20181;-78
2022/12/17 15:02:25;;;;;;;46.15;21.10;;;2.60;99.90;;;;;;5052872;28;20218;-78
2022/12/17 15:04:52;;;;;;;37.88;20.70;;;2.70;99.90;;;;;;5055664;28;20254;-78
2022/12/17 15:07:27;;;;;;;48.58;19.27;;;2.70;99.90;;;;;;5054667;28;20190;-78
2022/12/17 15:09:54;;;;;;;41.40;19.83;;;2.70;99.90;;;;;;5056565;28;20169;-78
2022/12/17 15:12:24;;;;;;;42.40;20.42;;;2.80;99.90;;;;;;5054564;28;20300;-78
2022/12/17 15:14:50;;;;;;;40.72;20.23;;;2.70;99.90;;;;;;5054248;28;20168;-77
2022/12/17 15:17:16;;;;;;;49.65;21.92;;;2.60;99.90;;;;;;5060435;28;20171;-77
2022/12/17 15:19:41;;;;;;;40.72;21.58;;;2.70;99.90;;;;;;5059769;28;20221;-77
2022/12/17 15:22:15;;;;;;;41.90;20.92;;;2.70;99.90;;;;;;5057397;28;20187;-78
2022/12/17 15:24:41;;;;;;;51.60;24.52;;;2.70;99.90;;;;;;5054573;28;20618;-78
2022/12/17 15:27:12;;;;;;;61.13;26.75;;;2.60;99.90;;;;;;5053618;28;20655;-79
2022/12/17 15:29:37;;;;;;;49.80;23.67;;;2.60;99.90;;;;;;5053297;28;20171;-79
2022/12/17 15:32:03;;;;;;;48.63;25.23;;;2.50;99.90;;;;;;5056025;28;20191;-78
2022/12/17 15:34:29;;;;;;;59.88;24.38;;;2.60;99.90;;;;;;5054275;28;20556;-78
2022/12/17 15:36:54;;;;;;;44.22;23.23;;;2.60;99.90;;;;;;5054071;28;20216;-78
2022/12/17 15:39:20;;;;;;;59.47;24.60;;;2.50;99.90;;;;;;5053518;28;20166;-78
2022/12/17 15:44:31;;;;;;;47.33;23.58;;;2.60;99.90;;;;;;5056725;28;20194;-78
2022/12/17 15:46:57;;;;;;;49.00;24.77;;;2.60;99.90;;;;;;5053578;28;20171;-78
2022/12/17 15:49:22;;;;;;;58.95;24.00;;;2.40;99.90;;;;;;5054065;28;20229;-77
2022/12/17 15:51:48;;;;;;;38.47;21.52;;;2.40;99.90;;;;;;5056216;28;20218;-79
2022/12/17 15:54:14;;;;;;;53.47;24.95;;;2.40;99.90;;;;;;5054273;28;20198;-78
2022/12/17 15:56:39;;;;;;;52.10;25.98;;;2.30;99.90;;;;;;5054126;28;20194;-78
2022/12/17 15:59:05;;;;;;;64.82;25.75;;;2.20;99.90;;;;;;5052725;28;20195;-81
2022/12/17 16:01:31;;;;;;;60.30;26.15;;;2.20;99.90;;;;;;5054363;28;20256;-79
2022/12/17 16:03:57;;;;;;;56.90;27.48;;;2.20;99.90;;;;;;5054011;28;20164;-78
2022/12/17 16:06:22;;;;;;;68.55;30.25;;;2.10;99.90;;;;;;5053397;28;20167;-81
2022/12/17 16:08:48;;;;;;;64.65;28.52;;;2.20;99.90;;;;;;5054723;28;20619;-81
2022/12/17 16:11:14;;;;;;;73.75;29.95;;;2.20;99.90;;;;;;5053873;28;20569;-80
2022/12/17 16:13:40;;;;;;;69.60;30.88;;;2.20;99.90;;;;;;5053771;28;20199;-80
2022/12/17 16:16:06;;;;;;;72.65;30.90;;;2.30;99.90;;;;;;5052169;28;20226;-80
2022/12/17 16:18:32;;;;;;;71.20;30.33;;;2.20;99.90;;;;;;5054519;28;20871;-79
2022/12/17 16:21:03;;;;;;;82.50;32.33;;;2.10;99.90;;;;;;5054202;28;20172;-79
2022/12/17 16:23:30;;;;;;;75.23;32.07;;;2.10;99.90;;;;;;5054172;28;20179;-81
2022/12/17 16:25:57;;;;;;;67.77;30.27;;;2.10;99.90;;;;;;5055423;28;20175;-78
2022/12/17 16:28:23;;;;;;;68.80;30.90;;;2.10;99.90;;;;;;5052872;28;20875;-79
2022/12/17 16:31:01;;;;;;;75.57;31.90;;;2.00;99.90;;;;;;5052732;28;20171;-80
2022/12/17 16:33:27;;;;;;;78.80;32.27;;;2.00;99.90;;;;;;5052320;28;20210;-79
2022/12/17 16:35:53;;;;;;;63.70;30.93;;;2.00;99.90;;;;;;5052511;28;20504;-79
2022/12/17 16:38:19;;;;;;;71.93;31.67;;;2.00;99.90;;;;;;5053652;28;20182;-78
2022/12/17 16:40:45;;;;;;;70.43;30.17;;;1.90;99.90;;;;;;5051591;28;20163;-79
2022/12/17 16:43:11;;;;;;;77.82;31.52;;;1.90;99.90;;;;;;5052740;28;20281;-81
2022/12/17 16:45:46;;;;;;;68.00;30.90;;;1.80;99.90;;;;;;5052668;28;20181;-80
2022/12/17 16:48:11;;;;;;;68.22;33.35;;;1.80;99.90;;;;;;5051684;28;20172;-81
2022/12/17 16:50:37;;;;;;;65.78;32.80;;;1.70;99.90;;;;;;5053536;28;20167;-86
2022/12/17 16:53:03;;;;;;;64.93;30.23;;;1.50;99.90;;;;;;5052762;28;20748;-79
2022/12/17 16:55:28;;;;;;;75.00;30.00;;;1.60;99.90;;;;;;5053482;28;20168;-80
2022/12/17 16:57:59;;;;;;;82.25;32.33;;;1.60;99.90;;;;;;5066695;28;20163;-80
2022/12/17 17:00:27;;;;;;;79.47;32.67;;;1.70;99.90;;;;;;5066710;28;20183;-80
2022/12/17 17:02:52;;;;;;;71.43;32.70;;;1.80;99.90;;;;;;5054991;28;20191;-79
2022/12/17 17:05:18;;;;;;;69.88;31.85;;;1.90;99.90;;;;;;5052498;28;20253;-82
2022/12/17 17:07:43;;;;;;;79.93;32.83;;;2.00;99.90;;;;;;5052621;28;20228;-79
2022/12/17 17:10:09;;;;;;;72.38;32.08;;;2.00;99.90;;;;;;5052471;28;20580;-79
2022/12/17 17:12:34;;;;;;;68.78;30.67;;;1.90;99.90;;;;;;5052756;28;20206;-79
2022/12/17 17:15:00;;;;;;;69.93;32.80;;;1.90;99.90;;;;;;5053539;28;20175;-79
2022/12/17 17:17:25;;;;;;;79.50;33.78;;;1.90;99.90;;;;;;5052768;28;20769;-82
2022/12/17 17:19:51;;;;;;;80.97;32.60;;;1.70;99.90;;;;;;5052532;28;20163;-81
2022/12/17 17:22:17;;;;;;;79.13;33.58;;;1.50;99.90;;;;;;5051336;28;20195;-78
2022/12/17 17:24:42;;;;;;;67.35;31.52;;;1.30;99.90;;;;;;5054109;28;20224;-83
2022/12/17 17:27:08;;;;;;;68.03;31.93;;;1.40;99.90;;;;;;5057689;28;20627;-81
2022/12/17 17:29:33;;;;;;;69.43;31.25;;;1.20;99.90;;;;;;5056584;28;20244;-83
2022/12/17 17:31:59;;;;;;;72.93;31.92;;;1.20;99.90;;;;;;5056617;28;20277;-81
2022/12/17 17:34:24;;;;;;;69.30;31.50;;;1.00;99.90;;;;;;5055208;28;20217;-80
2022/12/17 17:36:50;;;;;;;75.70;32.88;;;0.80;99.90;;;;;;5056172;28;20675;-81
2022/12/17 17:39:16;;;;;;;72.00;33.15;;;0.60;99.90;;;;;;5056153;28;20167;-80
2022/12/17 17:41:41;;;;;;;83.22;32.55;;;0.70;99.90;;;;;;5056178;28;20201;-84
2022/12/17 17:44:11;;;;;;;70.73;32.10;;;0.90;99.90;;;;;;5056507;28;20175;-79
2022/12/17 17:46:37;;;;;;;73.18;31.40;;;1.00;99.90;;;;;;5057352;28;20175;-87
2022/12/17 17:49:05;;;;;;;75.93;32.03;;;1.00;99.90;;;;;;5054799;28;20167;-78
2022/12/17 17:51:34;;;;;;;78.50;32.97;;;1.30;99.90;;;;;;5055461;28;20615;-81
2022/12/17 17:54:01;;;;;;;66.70;32.23;;;1.40;99.90;;;;;;5055829;28;20171;-81
2022/12/17 17:56:30;;;;;;;68.63;31.30;;;1.30;99.90;;;;;;5054450;28;20590;-82
2022/12/17 17:59:00;;;;;;;83.97;31.98;;;1.20;99.90;;;;;;5054855;28;20190;-81
2022/12/17 18:01:28;;;;;;;72.63;30.63;;;1.10;99.90;;;;;;5056211;28;20179;-80
2022/12/17 18:03:57;;;;;;;66.30;30.90;;;0.80;99.90;;;;;;5055739;28;20172;-80
2022/12/17 18:06:23;;;;;;;67.22;32.38;;;0.80;99.90;;;;;;5055432;28;20252;-80
2022/12/17 18:08:49;;;;;;;66.82;30.75;;;0.80;99.90;;;;;;5056141;28;20649;-83
2022/12/17 18:11:16;;;;;;;71.18;30.27;;;0.80;99.90;;;;;;5056278;28;20227;-85
2022/12/17 18:13:55;;;;;;;67.45;31.55;;;0.90;99.90;;;;;;5054797;28;20214;-84
2022/12/17 18:16:40;;;;;;;82.13;34.37;;;1.10;99.90;;;;;;5055507;28;20163;-81
2022/12/17 18:19:20;;;;;;;71.07;31.33;;;1.00;99.90;;;;;;5055206;28;20167;-82
2022/12/17 18:21:46;;;;;;;69.67;30.73;;;1.00;99.90;;;;;;5055557;28;20179;-81
2022/12/17 18:24:15;;;;;;;78.97;31.07;;;0.70;99.90;;;;;;5056258;28;20229;-80
2022/12/17 18:26:42;;;;;;;81.18;33.42;;;0.70;99.90;;;;;;5056220;28;20170;-82
2022/12/17 18:29:17;;;;;;;78.80;30.67;;;0.60;99.90;;;;;;5055540;28;20224;-81
2022/12/17 18:31:43;;;;;;;81.47;32.23;;;0.50;99.90;;;;;;5055326;28;20183;-81
2022/12/17 18:34:13;;;;;;;77.73;32.53;;;0.30;99.90;;;;;;5056125;28;20167;-84
2022/12/17 18:36:41;;;;;;;73.00;30.95;;;0.20;99.90;;;;;;5055871;28;20155;-81
2022/12/17 18:39:11;;;;;;;71.83;30.50;;;0.30;99.90;;;;;;5055400;28;20541;-81
2022/12/17 18:44:22;;;;;;;70.27;30.77;;;0.40;99.90;;;;;;5055649;28;20233;-81
2022/12/17 18:46:48;;;;;;;76.47;31.50;;;0.50;99.90;;;;;;5055206;28;20174;-79
2022/12/17 18:49:15;;;;;;;73.40;31.43;;;0.40;99.90;;;;;;5055339;28;20167;-84
2022/12/17 18:51:43;;;;;;;78.78;32.50;;;0.50;99.90;;;;;;5054754;28;20211;-83
2022/12/17 18:54:14;;;;;;;85.73;33.30;;;0.70;99.90;;;;;;5055675;28;20176;-83
2022/12/17 18:56:39;;;;;;;82.63;35.13;;;0.50;99.90;;;;;;5055318;28;20167;-82
2022/12/17 18:59:06;;;;;;;89.37;36.07;;;0.70;99.90;;;;;;5055217;28;20178;-82
2022/12/17 19:01:34;;;;;;;80.23;32.67;;;0.60;99.90;;;;;;5054778;28;20187;-83
2022/12/17 19:04:05;;;;;;;72.68;31.40;;;0.50;99.90;;;;;;5054729;28;20615;-84
2022/12/17 19:06:32;;;;;;;70.83;30.27;;;0.50;99.90;;;;;;5055491;28;20619;-84
2022/12/17 19:08:58;;;;;;;85.63;34.63;;;0.60;99.90;;;;;;5054803;28;20250;-80
2022/12/17 19:11:24;;;;;;;85.57;32.37;;;0.80;99.90;;;;;;5054905;28;20269;-82
2022/12/17 19:13:50;;;;;;;88.23;39.57;;;0.70;99.90;;;;;;5050270;28;20507;-81
2022/12/17 19:16:33;;;;;;;84.70;35.42;;;0.40;99.90;;;;;;5051981;28;20632;-80
2022/12/17 19:21:25;;;;;;;80.13;33.83;;;0.70;99.90;;;;;;5055451;28;20187;-80
2022/12/17 19:23:56;;;;;;;88.70;35.43;;;0.60;99.90;;;;;;5056072;28;20164;-79
2022/12/17 19:26:22;;;;;;;87.23;36.53;;;0.50;99.90;;;;;;5037972;28;20262;-80
2022/12/17 19:28:51;;;;;;;82.97;34.27;;;0.40;99.90;;;;;;5033741;28;20168;-81
2022/12/17 19:31:18;;;;;;;83.90;33.83;;;0.30;99.90;;;;;;5035493;28;20187;-86
2022/12/17 19:33:44;;;;;;;86.33;34.23;;;0.30;99.90;;;;;;5034456;28;20588;-81
2022/12/17 19:36:16;;;;;;;78.27;35.40;;;0.30;99.90;;;;;;5059391;28;20175;-86
2022/12/17 19:38:42;;;;;;;86.97;34.37;;;0.20;99.90;;;;;;5054356;28;20167;-78
2022/12/17 19:41:13;;;;;;;83.30;32.67;;;0.40;99.90;;;;;;5053329;28;20627;-80
2022/12/17 19:43:40;;;;;;;81.47;34.07;;;0.40;99.90;;;;;;5054911;28;20163;-81
2022/12/17 19:46:08;;;;;;;86.10;32.10;;;0.40;99.90;;;;;;5041464;28;20211;-82
2022/12/17 19:48:35;;;;;;;70.70;30.27;;;0.40;99.90;;;;;;5032647;28;20168;-84
2022/12/17 19:51:03;;;;;;;79.97;32.93;;;0.30;99.90;;;;;;5033888;28;20195;-82
2022/12/17 19:53:29;;;;;;;86.53;34.10;;;0.40;99.90;;;;;;5033395;28;20206;-81
2022/12/17 19:56:06;;;;;;;83.53;32.70;;;0.50;99.90;;;;;;5033870;28;20215;-83
2022/12/17 19:58:32;;;;;;;81.50;32.17;;;0.40;99.90;;;;;;5035244;28;20168;-85
2022/12/17 20:01:05;;;;;;;85.13;33.07;;;0.60;99.90;;;;;;5053567;28;20261;-82
2022/12/17 20:03:30;;;;;;;83.83;31.57;;;0.50;99.90;;;;;;5052256;28;20536;-80
2022/12/17 20:05:56;;;;;;;75.77;31.10;;;0.40;99.90;;;;;;5052621;28;20182;-82
2022/12/17 20:08:21;;;;;;;76.97;32.03;;;0.40;99.90;;;;;;5052724;28;20548;-80
2022/12/17 20:10:47;;;;;;;77.43;31.50;;;0.40;99.90;;;;;;5053276;28;20181;-81
2022/12/17 20:13:12;;;;;;;89.60;33.67;;;0.20;99.90;;;;;;5052561;28;20217;-82
2022/12/17 20:15:38;;;;;;;81.33;33.87;;;0.00;99.90;;;;;;5043502;28;20227;-82
2022/12/17 20:18:04;;;;;;;81.20;32.10;;;0.10;99.90;;;;;;5033190;28;20168;-86
2022/12/17 20:20:29;;;;;;;72.00;31.40;;;0.00;99.90;;;;;;5033019;28;20208;-81
2022/12/17 20:22:55;;;;;;;69.03;32.43;;;0.00;99.90;;;;;;5033265;28;20195;-80
2022/12/17 20:25:20;;;;;;;64.80;29.00;;;0.10;99.90;;;;;;5033219;28;20595;-84
2022/12/17 20:27:46;;;;;;;72.60;31.67;;;0.30;99.90;;;;;;5032147;28;20180;-81
2022/12/17 20:30:12;;;;;;;76.63;31.23;;;0.40;99.90;;;;;;5032473;28;20186;-81
2022/12/17 20:32:37;;;;;;;69.70;30.40;;;0.50;99.90;;;;;;5030391;28;20226;-85
2022/12/17 20:35:04;;;;;;;70.13;30.43;;;0.30;99.90;;;;;;5032970;28;20172;-81
2022/12/17 20:37:29;;;;;;;72.73;30.80;;;0.30;99.90;;;;;;5033320;28;20191;-83
2022/12/17 20:39:55;;;;;;;74.23;32.73;;;0.20;99.90;;;;;;5033414;28;20663;-83
2022/12/17 20:42:22;;;;;;;79.07;32.10;;;0.40;99.90;;;;;;5052940;28;20587;-80
2022/12/17 20:44:48;;;;;;;70.23;30.70;;;0.50;99.90;;;;;;5051495;28;20178;-80
2022/12/17 20:47:13;;;;;;;70.67;31.67;;;0.50;99.90;;;;;;5052986;28;20175;-82
2022/12/17 20:49:40;;;;;;;69.23;29.47;;;0.40;99.90;;;;;;5052810;28;20167;-81
2022/12/17 20:52:05;;;;;;;69.20;29.83;;;0.40;99.90;;;;;;5050838;28;20221;-82
2022/12/17 20:54:31;;;;;;;67.57;29.95;;;0.40;99.90;;;;;;5052574;28;20172;-83
2022/12/17 20:56:57;;;;;;;67.13;30.40;;;0.50;99.90;;;;;;5052574;28;20171;-83
2022/12/17 20:59:22;;;;;;;64.38;30.23;;;0.70;99.90;;;;;;5050140;28;20171;-79
2022/12/17 21:01:48;;;;;;;73.37;31.50;;;0.70;99.90;;;;;;5052735;28;20534;-82
2022/12/17 21:04:14;;;;;;;60.85;28.02;;;0.70;99.90;;;;;;5052849;28;20301;-80
2022/12/17 21:06:42;;;;;;;64.45;28.92;;;0.60;99.90;;;;;;5052567;28;20217;-81
2022/12/17 21:09:09;;;;;;;77.47;30.00;;;0.70;99.90;;;;;;5052645;28;20175;-83
2022/12/17 21:11:36;;;;;;;62.50;29.63;;;0.80;99.90;;;;;;5052470;28;20187;-82
2022/12/17 21:14:04;;;;;;;66.93;28.53;;;0.80;99.90;;;;;;5052299;28;20202;-83
2022/12/17 21:16:30;;;;;;;61.47;26.47;;;0.60;99.90;;;;;;5052554;28;20250;-81
2022/12/17 21:18:57;;;;;;;55.70;28.27;;;0.50;99.90;;;;;;5052423;28;20616;-83
2022/12/17 21:21:27;;;;;;;67.27;28.27;;;0.40;99.90;;;;;;5052310;28;20179;-80
2022/12/17 21:23:52;;;;;;;68.20;29.43;;;0.20;99.90;;;;;;5052339;28;20163;-82
2022/12/17 21:26:21;;;;;;;62.20;27.37;;;-0.30;99.90;;;;;;5052452;28;20640;-84
2022/12/17 21:28:49;;;;;;;60.10;27.93;;;-0.40;99.90;;;;;;5052196;28;20179;-83
2022/12/17 21:31:19;;;;;;;60.63;27.73;;;-0.30;99.90;;;;;;5052775;28;20189;-79
2022/12/17 21:33:46;;;;;;;60.70;26.40;;;-0.10;99.90;;;;;;5052701;28;20560;-83
2022/12/17 21:36:13;;;;;;;56.80;25.00;;;0.10;99.90;;;;;;5052550;28;20159;-84
2022/12/17 21:38:39;;;;;;;63.00;27.13;;;0.00;99.90;;;;;;5051942;28;20173;-79
2022/12/17 21:41:07;;;;;;;58.77;26.17;;;0.00;99.90;;;;;;5051955;28;20242;-84
2022/12/17 21:43:33;;;;;;;56.47;26.07;;;0.00;99.90;;;;;;5052611;28;20174;-84
2022/12/17 21:45:59;;;;;;;63.27;26.63;;;-0.10;99.90;;;;;;5051832;28;20175;-78
2022/12/17 21:48:24;;;;;;;51.70;26.00;;;-0.30;99.90;;;;;;5050651;28;20182;-79
2022/12/17 21:50:50;;;;;;;54.70;25.13;;;-0.30;99.90;;;;;;5050567;28;20167;-81
2022/12/17 21:53:16;;;;;;;53.93;25.33;;;-0.30;99.90;;;;;;5051559;28;20218;-82
2022/12/17 21:55:42;;;;;;;61.40;26.20;;;-0.20;99.90;;;;;;5052250;28;20167;-78
2022/12/17 21:58:07;;;;;;;59.03;27.27;;;-0.10;99.90;;;;;;5052372;28;20172;-84
2022/12/17 22:00:34;;;;;;;56.50;25.27;;;0.00;99.90;;;;;;5052012;28;20202;-82
2022/12/17 22:02:59;;;;;;;54.17;26.47;;;0.10;99.90;;;;;;5052105;28;20187;-84
2022/12/17 22:05:26;;;;;;;63.40;26.93;;;-0.10;99.90;;;;;;5052047;28;20685;-79
2022/12/17 22:07:51;;;;;;;62.00;24.97;;;0.10;99.90;;;;;;5052479;28;20164;-81
2022/12/17 22:10:18;;;;;;;64.33;26.57;;;0.10;99.90;;;;;;5053179;28;20168;-84
2022/12/17 22:15:28;;;;;;;62.03;26.83;;;0.30;99.90;;;;;;5055477;28;20220;-83
2022/12/17 22:17:55;;;;;;;56.60;26.13;;;0.20;99.90;;;;;;5054517;28;20182;-83
2022/12/17 22:20:21;;;;;;;67.20;27.37;;;0.30;99.90;;;;;;5055476;28;20588;-82
2022/12/17 22:22:46;;;;;;;54.53;26.53;;;0.20;99.90;;;;;;5055651;28;20187;-81
2022/12/17 22:25:12;;;;;;;62.37;27.10;;;0.10;99.90;;;;;;5054402;28;20644;-82
2022/12/17 22:27:39;;;;;;;51.13;26.30;;;0.10;99.90;;;;;;5054366;28;20599;-84
2022/12/17 22:33:03;;;;;;;56.73;25.80;;;0.20;99.90;;;;;;5055399;28;20275;-78
2022/12/17 22:35:35;;;;;;;62.27;27.27;;;0.00;99.90;;;;;;5055979;28;20246;-82
2022/12/17 22:38:02;;;;;;;54.63;26.93;;;0.00;99.90;;;;;;5054085;28;20221;-78
2022/12/17 22:40:27;;;;;;;59.33;26.87;;;-0.10;99.90;;;;;;5055395;28;20162;-83
2022/12/17 22:45:40;;;;;;;58.50;27.13;;;0.10;99.90;;;;;;5055819;28;20205;-79
2022/12/17 22:48:11;;;;;;;53.50;25.17;;;0.10;99.90;;;;;;5054940;28;20195;-79
2022/12/17 22:50:37;;;;;;;57.97;26.43;;;0.10;99.90;;;;;;5055516;28;20217;-78
2022/12/17 22:53:03;;;;;;;51.93;24.30;;;0.00;99.90;;;;;;5054687;28;20198;-79
2022/12/17 22:55:29;;;;;;;54.23;25.70;;;0.10;99.90;;;;;;5052827;28;20262;-79
2022/12/17 22:57:55;;;;;;;57.93;26.17;;;-0.20;99.90;;;;;;5055269;28;20266;-79
2022/12/17 23:00:24;;;;;;;59.53;24.83;;;-0.30;99.90;;;;;;5054841;28;20164;-78
2022/12/17 23:02:52;;;;;;;65.47;26.80;;;-0.20;99.90;;;;;;5053538;28;20191;-78
2022/12/17 23:05:19;;;;;;;58.13;24.47;;;-0.20;99.90;;;;;;5054825;28;20255;-78
2022/12/17 23:07:44;;;;;;;52.40;24.37;;;-0.30;99.90;;;;;;5054609;28;20167;-80
2022/12/17 23:10:10;;;;;;;53.60;23.73;;;-0.30;99.90;;;;;;5054597;28;20290;-80
2022/12/17 23:12:50;;;;;;;53.77;24.03;;;-0.30;99.90;;;;;;5052702;28;20255;-79
2022/12/17 23:15:36;;;;;;;49.53;24.77;;;-0.30;99.90;;;;;;5054557;28;20175;-79
2022/12/17 23:18:04;;;;;;;55.67;24.47;;;-0.30;99.90;;;;;;5054725;28;20632;-78
2022/12/17 23:20:32;;;;;;;58.40;25.43;;;-0.40;99.90;;;;;;5053230;28;20167;-77
2022/12/17 23:22:58;;;;;;;56.73;25.60;;;-0.40;99.90;;;;;;5053128;28;20605;-78
2022/12/17 23:25:25;;;;;;;60.57;26.70;;;-0.40;99.90;;;;;;5054511;28;20304;-77
2022/12/17 23:27:52;;;;;;;55.27;23.83;;;-0.50;99.90;;;;;;5052610;28;20174;-77
2022/12/17 23:30:18;;;;;;;55.47;24.97;;;-0.60;99.90;;;;;;5054323;28;20823;-78
2022/12/17 23:32:44;;;;;;;64.50;27.53;;;-0.70;99.90;;;;;;5054054;28;20297;-78
2022/12/17 23:35:11;;;;;;;54.23;25.80;;;-0.90;99.90;;;;;;5052906;28;20182;-78
2022/12/17 23:37:38;;;;;;;51.37;25.50;;;-0.80;99.90;;;;;;5052750;28;20182;-79
2022/12/17 23:40:04;;;;;;;55.03;24.60;;;-0.70;99.90;;;;;;5053842;28;20167;-77
2022/12/17 23:42:30;;;;;;;52.33;24.40;;;-0.70;99.90;;;;;;5053813;28;20199;-78
2022/12/17 23:44:55;;;;;;;57.33;25.97;;;-0.60;99.90;;;;;;5053967;28;20159;-78
2022/12/17 23:47:21;;;;;;;51.07;22.83;;;-0.50;99.90;;;;;;5052471;28;20194;-79
2022/12/17 23:49:47;;;;;;;44.93;22.33;;;-0.70;99.90;;;;;;5053996;28;20178;-80
2022/12/17 23:52:12;;;;;;;47.93;23.57;;;-1.00;99.90;;;;;;5052364;28;20256;-78
2022/12/17 23:54:38;;;;;;;55.50;24.50;;;-1.00;99.90;;;;;;5053712;28;20182;-81
2022/12/17 23:57:04;;;;;;;66.43;25.67;;;-1.20;99.90;;;;;;5053780;28;20206;-78
2022/12/17 23:59:30;;;;;;;59.13;24.87;;;-1.20;99.90;;;;;;5053635;28;20178;-78
